Terminal Aerodrome Forecast
Issued by NWS

Home | Current Version | Previous Version | Graphics & Text | Print | Product List | Glossary On
Versions: 1 2 3 4 5 6 7 8 9 10 11 12 13 14 15 16
757
FTUS43 KICT 221735
TAFHUT
TAF
KHUT 221735Z 2218/2318 24009KT P6SM VCSH SCT030 BKN080
     FM222100 25005KT P6SM VCSH BKN045
     FM222300 22006KT P6SM BKN070
     FM230600 29004KT P6SM VCSH BKN100
     FM230900 35013KT P6SM OVC030
     FM231400 35014G22KT P6SM SCT040=

USA.gov is the U.S. government's official web portal to all federal, state and local government web resources and services.